createdAt,value
2018-01-25T00:11:42.903Z,10.07
2018-01-25T03:17:13.243Z,9.64
2018-01-25T03:37:48.207Z,9.67
2018-01-25T03:58:23.903Z,9.53
2018-01-25T04:18:56.903Z,9.47
2018-01-25T04:39:29.106Z,9.49
2018-01-25T05:00:01.304Z,9.54
2018-01-25T05:20:37.501Z,9.50
2018-01-25T05:41:12.983Z,9.58
2018-01-25T06:01:51.246Z,9.47
2018-01-25T06:22:27.310Z,9.42
2018-01-25T06:43:01.354Z,9.47
2018-01-25T07:03:35.930Z,9.48
2018-01-25T07:24:05.749Z,9.52
2018-01-25T07:44:41.339Z,9.62
2018-01-25T08:05:15.583Z,9.65
2018-01-25T08:25:48.492Z,9.73
2018-01-25T08:46:20.700Z,9.79
2018-01-25T09:06:54.175Z,9.84
2018-01-25T09:27:28.776Z,9.99
2018-01-25T09:48:04.928Z,9.97
2018-01-25T10:08:37.906Z,9.97
2018-01-25T10:29:10.905Z,10.12
2018-01-25T10:49:43.321Z,10.16
2018-01-25T11:10:15.304Z,10.20
2018-01-25T11:30:48.744Z,10.21
2018-01-25T11:51:28.920Z,10.30
2018-01-25T12:12:03.883Z,10.36
2018-01-25T12:32:35.161Z,10.42
2018-01-25T12:53:10.434Z,10.49
2018-01-25T13:13:43.907Z,10.60
2018-01-25T13:34:17.899Z,10.76
2018-01-25T13:54:51.951Z,10.62
2018-01-25T14:15:28.141Z,10.66
2018-01-25T14:36:02.805Z,10.49
2018-01-25T14:56:40.829Z,10.38
2018-01-25T15:17:17.022Z,10.41
2018-01-25T15:37:49.228Z,10.22
2018-01-25T15:58:25.751Z,10.14
2018-01-25T16:18:56.700Z,10.03
2018-01-25T16:39:31.970Z,9.86
2018-01-25T17:00:08.162Z,9.82
2018-01-25T17:20:43.718Z,9.94
2018-01-25T17:41:19.890Z,9.70
2018-01-25T18:01:53.670Z,9.65
2018-01-25T18:22:30.168Z,9.32
2018-01-25T18:43:06.633Z,9.29
2018-01-25T19:03:38.559Z,9.05
2018-01-25T19:24:10.762Z,8.96
2018-01-25T19:44:48.228Z,8.93
2018-01-25T20:05:21.438Z,8.72
2018-01-25T20:25:54.429Z,8.65
2018-01-25T20:46:29.700Z,8.74
2018-01-25T21:07:01.902Z,8.63
2018-01-25T21:27:35.289Z,8.51
2018-01-25T21:48:10.289Z,8.35
2018-01-25T22:08:45.572Z,8.33
2018-01-25T22:29:21.757Z,8.30
2018-01-25T22:49:54.194Z,8.24
2018-01-25T23:10:28.409Z,8.09
2018-01-25T23:31:02.346Z,8.07
2018-01-25T23:51:39.879Z,8.14
